createdAt,value
2023-03-07T00:01:27.901Z,3.85
2023-03-07T00:03:55.673Z,3.84
2023-03-07T00:06:23.261Z,3.80
2023-03-07T00:08:57.071Z,3.80
2023-03-07T00:11:24.611Z,3.82
2023-03-07T00:13:52.337Z,3.86
2023-03-07T00:16:23.268Z,3.85
2023-03-07T00:18:54.313Z,3.87
2023-03-07T00:21:22.690Z,3.86
2023-03-07T00:23:52.970Z,3.89
2023-03-07T00:26:25.930Z,3.92
2023-03-07T00:28:55.078Z,3.98
2023-03-07T00:31:24.207Z,3.96
2023-03-07T00:33:51.291Z,3.93
2023-03-07T00:36:22.384Z,3.93
2023-03-07T00:38:52.854Z,3.96
2023-03-07T00:41:26.804Z,3.93
2023-03-07T00:43:55.383Z,3.91
2023-03-07T00:46:25.251Z,3.96
2023-03-07T00:48:53.161Z,4.00
2023-03-07T00:51:22.631Z,4.04
2023-03-07T00:53:50.851Z,4.03
2023-03-07T00:56:25.983Z,4.01
2023-03-07T00:58:53.566Z,4.04
2023-03-07T01:01:25.189Z,4.02
2023-03-07T01:03:53.713Z,3.99
2023-03-07T01:06:28.261Z,4.03
2023-03-07T01:08:58.859Z,4.03
2023-03-07T01:11:28.134Z,4.05
2023-03-07T01:14:01.522Z,4.08
2023-03-07T01:16:35.891Z,4.09
2023-03-07T01:19:07.537Z,4.11
2023-03-07T01:21:38.880Z,4.10
2023-03-07T01:24:10.160Z,4.09
2023-03-07T01:26:37.499Z,4.11
2023-03-07T01:29:06.486Z,4.12
2023-03-07T01:31:33.463Z,4.13
2023-03-07T01:34:02.146Z,4.13
2023-03-07T01:36:34.627Z,4.09
2023-03-07T01:39:27.859Z,4.05
2023-03-07T01:41:54.715Z,4.07
2023-03-07T01:44:25.879Z,4.08
2023-03-07T01:46:58.543Z,4.01
2023-03-07T01:49:36.162Z,4.01
2023-03-07T01:52:23.965Z,3.97
2023-03-07T01:54:57.299Z,3.93
2023-03-07T01:57:32.388Z,3.97
2023-03-07T02:00:08.287Z,3.91
2023-03-07T02:02:38.057Z,3.88
2023-03-07T02:05:23.839Z,3.82
2023-03-07T02:07:53.901Z,3.85
2023-03-07T02:10:23.350Z,3.83
2023-03-07T02:12:53.718Z,3.86
2023-03-07T02:15:23.248Z,3.87
2023-03-07T02:17:51.527Z,3.82
2023-03-07T02:21:14.278Z,3.79
2023-03-07T02:24:11.568Z,3.77
2023-03-07T02:26:54.214Z,3.74
2023-03-07T02:29:22.214Z,3.77
2023-03-07T02:31:49.306Z,3.71
2023-03-07T02:34:25.241Z,3.71
2023-03-07T02:37:01.878Z,3.64
2023-03-07T02:39:32.466Z,3.59
2023-03-07T02:42:06.837Z,3.59
2023-03-07T02:44:33.635Z,3.63
2023-03-07T02:47:00.537Z,3.61
2023-03-07T02:49:27.344Z,3.65
2023-03-07T02:51:57.672Z,3.68
2023-03-07T02:54:25.323Z,3.70
2023-03-07T02:56:53.860Z,3.67
2023-03-07T02:59:20.762Z,3.66
2023-03-07T03:01:50.869Z,3.69
2023-03-07T03:04:18.407Z,3.70
2023-03-07T03:06:45.260Z,3.72
2023-03-07T03:09:12.035Z,3.74
2023-03-07T03:11:38.931Z,3.77
2023-03-07T03:14:05.785Z,3.79
2023-03-07T03:16:32.601Z,3.83
2023-03-07T03:19:00.224Z,3.90
2023-03-07T03:21:27.238Z,3.91
2023-03-07T03:23:53.971Z,3.91
2023-03-07T03:26:21.167Z,3.92
2023-03-07T03:28:48.061Z,3.94
2023-03-07T03:31:15.436Z,3.97
2023-03-07T03:33:44.197Z,3.93
2023-03-07T03:36:16.630Z,3.97
2023-03-07T03:38:44.058Z,3.98
2023-03-07T03:41:15.988Z,3.92
2023-03-07T03:43:43.079Z,3.87
2023-03-07T03:46:10.300Z,3.92
2023-03-07T03:48:37.170Z,3.84
2023-03-07T03:51:07.968Z,3.84
2023-03-07T03:53:37.313Z,3.85
2023-03-07T03:56:14.013Z,3.86
2023-03-07T03:58:42.262Z,3.79
2023-03-07T04:01:12.371Z,3.79
2023-03-07T04:03:47.080Z,3.71
2023-03-07T04:06:22.096Z,3.72
2023-03-07T04:08:49.824Z,3.76
2023-03-07T04:11:17.473Z,3.72
2023-03-07T04:13:44.342Z,3.63
2023-03-07T04:16:12.076Z,3.64
2023-03-07T04:18:40.032Z,3.70
2023-03-07T04:21:07.713Z,3.72
2023-03-07T04:23:34.923Z,3.72
2023-03-07T04:26:05.063Z,3.65
2023-03-07T04:28:45.441Z,3.68
2023-03-07T04:31:23.065Z,3.66
2023-03-07T04:33:51.690Z,3.67
2023-03-07T04:36:20.094Z,3.67
2023-03-07T04:38:49.320Z,3.66
2023-03-07T04:41:20.604Z,3.67
2023-03-07T04:43:47.943Z,3.66
2023-03-07T04:46:18.208Z,3.61
2023-03-07T04:48:46.503Z,3.59
2023-03-07T04:51:13.986Z,3.56
2023-03-07T04:53:41.059Z,3.59
2023-03-07T04:56:10.163Z,3.58
2023-03-07T04:58:37.884Z,3.56
2023-03-07T05:01:05.728Z,3.62
2023-03-07T05:03:33.516Z,3.64
2023-03-07T05:06:12.744Z,3.64
2023-03-07T05:08:39.669Z,3.69
2023-03-07T05:11:06.679Z,3.69
2023-03-07T05:13:33.676Z,3.71
2023-03-07T05:16:01.319Z,3.65
2023-03-07T05:18:28.911Z,3.66
2023-03-07T05:20:55.881Z,3.65
2023-03-07T05:23:23.035Z,3.64
2023-03-07T05:25:50.628Z,3.65
2023-03-07T05:28:18.968Z,3.66
2023-03-07T05:30:46.674Z,3.71
2023-03-07T05:33:14.864Z,3.75
2023-03-07T05:35:41.825Z,3.75
2023-03-07T05:38:09.386Z,3.76
2023-03-07T05:40:36.371Z,3.83
2023-03-07T05:43:03.619Z,3.81
2023-03-07T05:45:30.415Z,3.83
2023-03-07T05:47:57.344Z,3.82
2023-03-07T05:50:24.209Z,3.81
2023-03-07T05:52:53.052Z,3.84
2023-03-07T05:55:20.170Z,3.85
2023-03-07T05:57:47.050Z,3.84
2023-03-07T06:00:15.971Z,3.86
2023-03-07T06:02:45.203Z,3.85
2023-03-07T06:05:12.046Z,3.82
2023-03-07T06:07:38.905Z,3.84
2023-03-07T06:10:07.555Z,3.84
2023-03-07T06:12:34.449Z,3.81
2023-03-07T06:15:01.299Z,3.84
2023-03-07T06:17:28.234Z,3.87
2023-03-07T06:19:55.174Z,3.89
2023-03-07T06:22:22.108Z,3.92
2023-03-07T06:24:48.906Z,3.95
2023-03-07T06:27:15.819Z,3.95
2023-03-07T06:29:42.917Z,3.98
2023-03-07T06:32:09.740Z,4.00
2023-03-07T06:34:37.637Z,4.00
2023-03-07T06:37:04.759Z,4.03
2023-03-07T06:39:31.846Z,4.02
2023-03-07T06:41:58.866Z,4.06
2023-03-07T06:44:25.711Z,4.04
2023-03-07T06:46:52.506Z,4.05
2023-03-07T06:49:19.283Z,4.09
2023-03-07T06:51:46.040Z,4.13
2023-03-07T06:54:14.955Z,4.15
2023-03-07T06:56:45.331Z,4.14
2023-03-07T06:59:14.523Z,4.18
2023-03-07T07:01:41.340Z,4.20
2023-03-07T07:04:08.156Z,4.23
2023-03-07T07:06:35.050Z,4.23
2023-03-07T07:09:05.390Z,4.24
2023-03-07T07:11:32.313Z,4.29
2023-03-07T07:13:59.184Z,4.28
2023-03-07T07:16:26.033Z,4.31
2023-03-07T07:18:53.114Z,4.36
2023-03-07T07:21:20.130Z,4.33
2023-03-07T07:23:47.064Z,4.30
2023-03-07T07:26:14.061Z,4.32
2023-03-07T07:28:40.880Z,4.35
2023-03-07T07:31:07.809Z,4.36
2023-03-07T07:33:34.860Z,4.35
2023-03-07T07:36:01.677Z,4.36
2023-03-07T07:38:28.529Z,4.38
2023-03-07T07:40:56.222Z,4.43
2023-03-07T07:43:23.109Z,4.46
2023-03-07T07:45:50.027Z,4.50
2023-03-07T07:48:16.946Z,4.54
2023-03-07T07:50:43.851Z,4.57
2023-03-07T07:53:10.751Z,4.58
2023-03-07T07:55:37.646Z,4.63
2023-03-07T07:58:05.019Z,4.71
2023-03-07T08:00:32.684Z,4.73
2023-03-07T08:03:00.129Z,4.76
2023-03-07T08:05:27.144Z,4.78
2023-03-07T08:07:54.034Z,4.85
2023-03-07T08:10:21.752Z,4.87
2023-03-07T08:12:53.397Z,4.94
2023-03-07T08:15:23.954Z,4.97
2023-03-07T08:17:52.319Z,5.05
2023-03-07T08:20:22.240Z,5.05
2023-03-07T08:22:50.706Z,5.05
2023-03-07T08:25:22.767Z,5.04
2023-03-07T08:27:55.321Z,5.07
2023-03-07T08:30:25.958Z,5.12
2023-03-07T08:32:55.084Z,5.11
2023-03-07T08:35:23.141Z,5.09
2023-03-07T08:38:00.910Z,5.03
2023-03-07T08:40:30.316Z,4.96
2023-03-07T08:43:01.126Z,5.01
2023-03-07T08:45:28.024Z,5.05
2023-03-07T08:47:56.221Z,5.03
2023-03-07T08:50:27.211Z,5.07
2023-03-07T08:52:54.349Z,5.00
2023-03-07T08:55:21.397Z,5.01
2023-03-07T08:57:48.425Z,5.06
2023-03-07T09:00:15.945Z,5.05
2023-03-07T09:02:43.096Z,5.08
2023-03-07T09:05:10.802Z,5.09
2023-03-07T09:07:37.915Z,5.13
2023-03-07T09:10:05.999Z,5.16
2023-03-07T09:12:34.657Z,5.16
2023-03-07T09:15:01.524Z,5.19
2023-03-07T09:17:30.327Z,5.28
2023-03-07T09:19:57.146Z,5.32
2023-03-07T09:22:23.919Z,5.33
2023-03-07T09:24:50.791Z,5.40
2023-03-07T09:27:17.623Z,5.55
2023-03-07T09:29:44.945Z,5.63
2023-03-07T09:32:11.913Z,5.67
2023-03-07T09:34:38.943Z,5.75
2023-03-07T09:37:05.743Z,5.84
2023-03-07T09:39:32.637Z,5.88
2023-03-07T09:42:34.323Z,5.81
2023-03-07T09:45:14.973Z,5.73
2023-03-07T09:47:59.084Z,5.65
2023-03-07T09:50:52.882Z,5.68
2023-03-07T09:53:48.364Z,5.74
2023-03-07T09:56:38.250Z,5.78
2023-03-07T09:59:32.719Z,5.69
2023-03-07T10:02:40.845Z,5.68
2023-03-07T10:05:36.779Z,5.66
2023-03-07T10:08:05.376Z,5.74
2023-03-07T10:11:01.635Z,5.77
2023-03-07T10:14:06.607Z,5.65
2023-03-07T10:16:54.664Z,5.63
2023-03-07T10:20:12.600Z,5.54
2023-03-07T10:22:58.871Z,5.62
2023-03-07T10:25:40.762Z,5.65
2023-03-07T10:28:42.616Z,5.63
2023-03-07T10:31:36.237Z,5.56
2023-03-07T10:34:26.377Z,5.62
2023-03-07T10:37:11.484Z,5.70
2023-03-07T10:39:56.784Z,5.65
2023-03-07T10:42:36.778Z,5.60
2023-03-07T10:45:05.204Z,5.59
2023-03-07T10:47:32.115Z,5.53
2023-03-07T10:50:38.396Z,5.53
2023-03-07T10:53:21.726Z,5.50
2023-03-07T10:55:48.981Z,5.53
2023-03-07T10:58:22.984Z,5.56
2023-03-07T11:00:58.959Z,5.57
2023-03-07T11:03:52.176Z,5.54
2023-03-07T11:06:52.182Z,5.54
2023-03-07T11:09:48.399Z,5.58
2023-03-07T11:12:21.618Z,5.49
2023-03-07T11:14:52.391Z,5.57
2023-03-07T11:17:44.927Z,5.59
2023-03-07T11:20:49.705Z,5.61
2023-03-07T11:23:27.854Z,5.63
2023-03-07T11:25:57.888Z,5.71
2023-03-07T11:28:35.844Z,5.80
2023-03-07T11:31:31.772Z,6.02
2023-03-07T11:34:22.646Z,6.18
2023-03-07T11:36:59.605Z,6.33
2023-03-07T11:40:19.532Z,6.39
2023-03-07T11:43:00.955Z,6.44
2023-03-07T11:46:01.339Z,6.61
2023-03-07T11:49:35.275Z,6.85
2023-03-07T11:52:45.231Z,6.84
2023-03-07T11:55:26.565Z,6.80
2023-03-07T11:58:24.204Z,6.90
2023-03-07T12:01:14.252Z,7.06
2023-03-07T12:04:13.829Z,7.14
2023-03-07T12:07:04.771Z,7.09
2023-03-07T12:10:05.271Z,6.97
2023-03-07T12:13:28.954Z,7.15
2023-03-07T12:16:28.185Z,7.33
2023-03-07T12:19:13.218Z,7.57
2023-03-07T12:22:10.678Z,7.59
2023-03-07T12:25:03.482Z,7.64
2023-03-07T12:27:50.325Z,7.72
2023-03-07T12:30:30.530Z,8.00
2023-03-07T12:32:58.745Z,8.16
2023-03-07T12:35:45.291Z,8.36
2023-03-07T12:39:06.246Z,9.19
2023-03-07T12:42:15.329Z,9.89
2023-03-07T12:44:53.557Z,9.57
2023-03-07T12:47:32.538Z,11.08
2023-03-07T12:50:22.572Z,11.19
2023-03-07T12:53:13.735Z,12.47
2023-03-07T12:55:54.691Z,13.12
2023-03-07T12:58:47.096Z,13.25
2023-03-07T13:01:49.397Z,13.99
2023-03-07T13:04:34.116Z,13.78
2023-03-07T13:07:26.963Z,13.66
2023-03-07T13:09:58.478Z,14.21
2023-03-07T13:12:29.507Z,13.77
2023-03-07T13:15:46.617Z,14.03
2023-03-07T13:18:30.135Z,14.15
2023-03-07T13:21:32.711Z,12.99
2023-03-07T13:24:39.969Z,13.02
2023-03-07T13:27:20.735Z,13.69
2023-03-07T13:30:12.531Z,13.48
2023-03-07T13:32:49.221Z,13.70
2023-03-07T13:35:30.826Z,14.07
2023-03-07T13:37:58.513Z,14.13
2023-03-07T13:40:43.614Z,13.24
2023-03-07T13:43:24.192Z,13.24
2023-03-07T13:46:05.883Z,13.29
2023-03-07T13:48:32.675Z,12.59
2023-03-07T13:51:00.309Z,13.04
2023-03-07T13:53:33.436Z,13.71
2023-03-07T13:56:26.568Z,12.93
2023-03-07T13:59:09.909Z,13.31
2023-03-07T14:01:42.383Z,13.67
2023-03-07T14:04:39.583Z,13.66
2023-03-07T14:07:29.696Z,13.64
2023-03-07T14:10:22.266Z,13.47
2023-03-07T14:13:29.517Z,13.35
2023-03-07T14:16:21.764Z,12.63
2023-03-07T14:19:08.346Z,11.98
2023-03-07T14:22:10.939Z,11.79
2023-03-07T14:25:07.531Z,11.94
2023-03-07T14:27:57.657Z,11.54
2023-03-07T14:30:33.107Z,12.12
2023-03-07T14:33:01.425Z,11.64
2023-03-07T14:35:45.296Z,11.08
2023-03-07T14:38:24.571Z,10.35
2023-03-07T14:41:25.799Z,9.73
2023-03-07T14:44:06.053Z,9.24
2023-03-07T14:46:45.932Z,9.00
2023-03-07T14:49:42.260Z,9.06
2023-03-07T14:52:28.284Z,8.79
2023-03-07T14:55:03.059Z,8.54
2023-03-07T14:57:34.563Z,8.32
2023-03-07T15:00:23.042Z,8.10
2023-03-07T15:03:08.285Z,8.23
2023-03-07T15:05:51.072Z,8.24
2023-03-07T15:08:25.583Z,7.94
2023-03-07T15:11:17.762Z,8.01
2023-03-07T15:13:57.087Z,7.95
2023-03-07T15:16:37.197Z,7.88
2023-03-07T15:19:24.343Z,7.72
2023-03-07T15:22:03.703Z,7.66
2023-03-07T15:24:37.064Z,7.70
2023-03-07T15:27:07.827Z,7.74
2023-03-07T15:29:34.800Z,7.68
2023-03-07T15:32:27.145Z,7.67
2023-03-07T15:35:10.948Z,7.68
2023-03-07T15:37:59.937Z,7.83
2023-03-07T15:40:35.982Z,7.87
2023-03-07T15:43:04.422Z,7.92
2023-03-07T15:45:39.588Z,7.81
2023-03-07T15:48:26.888Z,7.60
2023-03-07T15:50:58.744Z,7.53
2023-03-07T15:53:37.554Z,7.47
2023-03-07T15:56:21.051Z,7.54
2023-03-07T15:58:48.820Z,7.54
2023-03-07T16:01:21.993Z,7.54
2023-03-07T16:03:58.858Z,7.44
2023-03-07T16:06:46.055Z,7.31
2023-03-07T16:09:18.281Z,7.31
2023-03-07T16:11:46.758Z,7.35
2023-03-07T16:14:32.608Z,7.29
2023-03-07T16:17:03.741Z,7.30
2023-03-07T16:19:31.161Z,7.32
2023-03-07T16:21:58.041Z,7.35
2023-03-07T16:24:24.959Z,7.40
2023-03-07T16:26:52.573Z,7.36
2023-03-07T16:29:23.123Z,7.26
2023-03-07T16:31:49.978Z,7.20
2023-03-07T16:34:21.570Z,7.15
2023-03-07T16:36:48.647Z,7.10
2023-03-07T16:39:16.004Z,7.09
2023-03-07T16:41:47.860Z,7.04
2023-03-07T16:44:18.154Z,6.89
2023-03-07T16:46:53.174Z,6.96
2023-03-07T16:49:21.112Z,6.98
2023-03-07T16:52:03.033Z,7.03
2023-03-07T16:54:32.401Z,7.02
2023-03-07T16:57:01.268Z,6.94
2023-03-07T16:59:35.534Z,6.97
2023-03-07T17:02:13.060Z,6.90
2023-03-07T17:04:39.840Z,6.87
2023-03-07T17:07:23.414Z,6.85
2023-03-07T17:09:50.508Z,6.82
2023-03-07T17:12:22.638Z,6.76
2023-03-07T17:14:49.764Z,6.70
2023-03-07T17:17:30.423Z,6.72
2023-03-07T17:19:57.258Z,6.74
2023-03-07T17:22:24.016Z,6.61
2023-03-07T17:24:51.740Z,6.58
2023-03-07T17:27:19.915Z,6.58
2023-03-07T17:29:54.687Z,6.56
2023-03-07T17:32:22.386Z,6.57
2023-03-07T17:34:49.209Z,6.55
2023-03-07T17:37:16.362Z,6.49
2023-03-07T17:39:43.645Z,6.44
2023-03-07T17:42:10.464Z,6.37
2023-03-07T17:44:37.527Z,6.34
2023-03-07T17:47:04.526Z,6.32
2023-03-07T17:49:40.675Z,6.30
2023-03-07T17:52:07.996Z,6.30
2023-03-07T17:54:35.188Z,6.32
2023-03-07T17:57:02.784Z,6.31
2023-03-07T17:59:32.500Z,6.34
2023-03-07T18:01:59.646Z,6.36
2023-03-07T18:04:28.516Z,6.41
2023-03-07T18:06:55.349Z,6.47
2023-03-07T18:09:23.270Z,6.46
2023-03-07T18:11:50.051Z,6.39
2023-03-07T18:14:17.467Z,6.41
2023-03-07T18:16:44.792Z,6.37
2023-03-07T18:19:25.265Z,6.41
2023-03-07T18:21:53.349Z,6.44
2023-03-07T18:24:30.360Z,6.37
2023-03-07T18:27:02.361Z,6.42
2023-03-07T18:29:29.771Z,6.41
2023-03-07T18:31:56.969Z,6.49
2023-03-07T18:34:24.874Z,6.49
2023-03-07T18:36:54.094Z,6.43
2023-03-07T18:39:23.499Z,6.38
2023-03-07T18:41:51.459Z,6.42
2023-03-07T18:44:19.606Z,6.47
2023-03-07T18:46:47.099Z,6.42
2023-03-07T18:49:16.175Z,6.36
2023-03-07T18:51:45.708Z,6.34
2023-03-07T18:54:14.274Z,6.29
2023-03-07T18:56:44.353Z,6.30
2023-03-07T18:59:11.387Z,6.34
2023-03-07T19:01:39.718Z,6.37
2023-03-07T19:04:07.611Z,6.39
2023-03-07T19:06:41.400Z,6.41
2023-03-07T19:09:15.373Z,6.40
2023-03-07T19:11:42.937Z,6.41
2023-03-07T19:14:09.926Z,6.41
2023-03-07T19:16:36.939Z,6.38
2023-03-07T19:19:04.313Z,6.36
2023-03-07T19:21:32.157Z,6.29
2023-03-07T19:24:01.616Z,6.35
2023-03-07T19:26:28.892Z,6.36
2023-03-07T19:28:59.880Z,6.33
2023-03-07T19:31:32.518Z,6.26
2023-03-07T19:34:03.246Z,6.28
2023-03-07T19:36:32.050Z,6.29
2023-03-07T19:38:59.361Z,6.30
2023-03-07T19:41:28.995Z,6.25
2023-03-07T19:43:58.010Z,6.21
2023-03-07T19:46:25.147Z,6.27
2023-03-07T19:48:52.061Z,6.21
2023-03-07T19:51:23.059Z,6.21
2023-03-07T19:53:51.999Z,6.19
2023-03-07T19:56:24.701Z,6.22
2023-03-07T19:58:51.859Z,6.25
2023-03-07T20:01:21.605Z,6.26
2023-03-07T20:03:50.747Z,6.29
2023-03-07T20:06:21.599Z,6.32
2023-03-07T20:08:51.023Z,6.25
2023-03-07T20:11:31.591Z,6.24
2023-03-07T20:14:03.472Z,6.24
2023-03-07T20:16:34.847Z,6.21
2023-03-07T20:19:06.172Z,6.17
2023-03-07T20:21:36.375Z,6.11
2023-03-07T20:24:04.488Z,6.10
2023-03-07T20:26:35.830Z,6.11
2023-03-07T20:29:07.313Z,6.10
2023-03-07T20:31:36.146Z,6.11
2023-03-07T20:34:03.629Z,6.07
2023-03-07T20:36:35.119Z,6.07
2023-03-07T20:39:08.053Z,6.03
2023-03-07T20:41:35.769Z,6.01
2023-03-07T20:44:06.554Z,6.02
2023-03-07T20:46:36.351Z,6.04
2023-03-07T20:49:04.733Z,6.00
2023-03-07T20:51:36.003Z,6.00
2023-03-07T20:54:08.219Z,6.04
2023-03-07T20:56:38.041Z,6.02
2023-03-07T20:59:07.644Z,5.95
2023-03-07T21:01:36.149Z,5.95
2023-03-07T21:04:10.451Z,5.98
2023-03-07T21:06:40.700Z,5.99
2023-03-07T21:09:10.333Z,5.95
2023-03-07T21:11:42.135Z,5.97
2023-03-07T21:14:11.632Z,5.97
2023-03-07T21:16:38.794Z,5.95
2023-03-07T21:19:07.374Z,5.90
2023-03-07T21:21:37.496Z,5.91
2023-03-07T21:24:05.687Z,5.90
2023-03-07T21:26:38.617Z,5.85
2023-03-07T21:29:05.425Z,5.86
2023-03-07T21:31:35.161Z,5.87
2023-03-07T21:34:07.039Z,5.81
2023-03-07T21:36:34.524Z,5.80
2023-03-07T21:39:10.404Z,5.78
2023-03-07T21:41:38.001Z,5.81
2023-03-07T21:44:06.185Z,5.80
2023-03-07T21:46:33.508Z,5.78
2023-03-07T21:49:01.731Z,5.78
2023-03-07T21:51:28.886Z,5.77
2023-03-07T21:53:55.673Z,5.75
2023-03-07T21:56:23.898Z,5.73
2023-03-07T21:58:51.186Z,5.74
2023-03-07T22:01:28.580Z,5.74
2023-03-07T22:03:58.898Z,5.74
2023-03-07T22:06:28.220Z,5.70
2023-03-07T22:08:55.409Z,5.71
2023-03-07T22:11:22.909Z,5.69
2023-03-07T22:13:50.486Z,5.73
2023-03-07T22:16:20.939Z,5.73
2023-03-07T22:18:57.275Z,5.73
2023-03-07T22:21:26.396Z,5.75
2023-03-07T22:24:01.327Z,5.77
2023-03-07T22:26:31.567Z,5.75
2023-03-07T22:28:59.525Z,5.71
2023-03-07T22:31:26.465Z,5.74
2023-03-07T22:33:53.705Z,5.75
2023-03-07T22:36:21.115Z,5.73
2023-03-07T22:38:52.567Z,5.73
2023-03-07T22:41:19.487Z,5.71
2023-03-07T22:43:47.008Z,5.68
2023-03-07T22:46:14.053Z,5.65
2023-03-07T22:48:41.200Z,5.67
2023-03-07T22:51:20.446Z,5.66
2023-03-07T22:53:48.205Z,5.66
2023-03-07T22:56:27.261Z,5.66
2023-03-07T22:58:54.348Z,5.63
2023-03-07T23:01:25.138Z,5.61
2023-03-07T23:03:56.698Z,5.63
2023-03-07T23:06:29.604Z,5.60
2023-03-07T23:08:59.542Z,5.59
2023-03-07T23:11:30.317Z,5.58
2023-03-07T23:13:58.425Z,5.59
2023-03-07T23:16:29.381Z,5.60
2023-03-07T23:18:58.538Z,5.62
2023-03-07T23:21:30.094Z,5.62
2023-03-07T23:23:57.994Z,5.63
2023-03-07T23:26:37.910Z,5.66
2023-03-07T23:29:07.053Z,5.65
2023-03-07T23:31:38.635Z,5.66
2023-03-07T23:34:16.565Z,5.66
2023-03-07T23:36:44.347Z,5.67
2023-03-07T23:39:11.630Z,5.66
2023-03-07T23:41:38.572Z,5.66
2023-03-07T23:44:05.732Z,5.65
2023-03-07T23:46:33.259Z,5.66
2023-03-07T23:49:00.068Z,5.65
2023-03-07T23:51:27.459Z,5.64
2023-03-07T23:53:54.524Z,5.65
2023-03-07T23:56:21.868Z,5.67
2023-03-07T23:58:53.004Z,5.66
